sensor_id;sensor_type;location;lat;lon;timestamp;pressure;altitude;pressure_sealevel;temperature;humidity
58761;BME280;44529;47.464;19.014;2023-02-13T00:02:10;102408.22;;;0.56;86.94
58761;BME280;44529;47.464;19.014;2023-02-13T00:05:12;102403.34;;;0.59;85.99
58761;BME280;44529;47.464;19.014;2023-02-13T00:08:15;102395.19;;;0.61;85.16
58761;BME280;44529;47.464;19.014;2023-02-13T00:11:18;102400.63;;;0.52;86.40
58761;BME280;44529;47.464;19.014;2023-02-13T00:14:21;102413.00;;;0.39;86.39
58761;BME280;44529;47.464;19.014;2023-02-13T00:17:23;102410.78;;;0.42;86.97
58761;BME280;44529;47.464;19.014;2023-02-13T00:20:27;102415.47;;;0.40;86.73
58761;BME280;44529;47.464;19.014;2023-02-13T00:23:31;102413.00;;;0.39;86.39
58761;BME280;44529;47.464;19.014;2023-02-13T00:26:34;102419.31;;;0.38;85.83
58761;BME280;44529;47.464;19.014;2023-02-13T00:29:37;102427.56;;;0.21;86.77
58761;BME280;44529;47.464;19.014;2023-02-13T00:32:39;102423.81;;;0.16;87.68
58761;BME280;44529;47.464;19.014;2023-02-13T00:35:42;102423.50;;;0.25;86.43
58761;BME280;44529;47.464;19.014;2023-02-13T00:38:45;102419.84;;;0.26;85.17
58761;BME280;44529;47.464;19.014;2023-02-13T00:41:48;102415.34;;;0.27;85.87
58761;BME280;44529;47.464;19.014;2023-02-13T00:44:50;102419.44;;;0.30;85.75
58761;BME280;44529;47.464;19.014;2023-02-13T00:47:52;102421.28;;;0.29;85.81
58761;BME280;44529;47.464;19.014;2023-02-13T00:50:55;102419.44;;;0.30;85.56
58761;BME280;44529;47.464;19.014;2023-02-13T00:53:58;102416.37;;;0.11;86.67
58761;BME280;44529;47.464;19.014;2023-02-13T00:57:01;102414.00;;;0.16;86.61
58761;BME280;44529;47.464;19.014;2023-02-13T01:00:05;102412.56;;;-0.01;88.26
58761;BME280;44529;47.464;19.014;2023-02-13T01:03:08;102411.81;;;0.05;86.29
58761;BME280;44529;47.464;19.014;2023-02-13T01:06:11;102406.50;;;0.05;86.19
58761;BME280;44529;47.464;19.014;2023-02-13T01:09:13;102401.19;;;0.05;86.44
58761;BME280;44529;47.464;19.014;2023-02-13T01:12:16;102398.16;;;0.08;85.65
58761;BME280;44529;47.464;19.014;2023-02-13T01:15:19;102396.69;;;0.06;86.40
58761;BME280;44529;47.464;19.014;2023-02-13T01:18:22;102401.19;;;0.05;86.40
58761;BME280;44529;47.464;19.014;2023-02-13T01:21:25;102398.53;;;0.05;86.91
58761;BME280;44529;47.464;19.014;2023-02-13T01:24:27;102386.91;;;-0.09;86.44
58761;BME280;44529;47.464;19.014;2023-02-13T01:27:32;102381.88;;;-0.04;86.46
58761;BME280;44529;47.464;19.014;2023-02-13T01:30:35;102388.47;;;0.01;86.02
58761;BME280;44529;47.464;19.014;2023-02-13T01:33:38;102386.09;;;-0.09;86.97
58761;BME280;44529;47.464;19.014;2023-02-13T01:36:41;102388.94;;;-0.11;86.87
58761;BME280;44529;47.464;19.014;2023-02-13T01:39:43;102390.25;;;-0.21;87.40
58761;BME280;44529;47.464;19.014;2023-02-13T01:42:46;102381.66;;;-0.23;87.54
58761;BME280;44529;47.464;19.014;2023-02-13T01:45:53;102381.34;;;-0.14;85.70
58761;BME280;44529;47.464;19.014;2023-02-13T01:49:02;102371.44;;;-0.20;86.94
58761;BME280;44529;47.464;19.014;2023-02-13T01:52:08;102373.88;;;-0.40;89.05
58761;BME280;44529;47.464;19.014;2023-02-13T01:55:12;102378.87;;;-0.51;89.06
58761;BME280;44529;47.464;19.014;2023-02-13T01:58:20;102378.22;;;-0.53;90.56
58761;BME280;44529;47.464;19.014;2023-02-13T02:01:25;102376.00;;;-0.35;87.47
58761;BME280;44529;47.464;19.014;2023-02-13T02:04:31;102376.44;;;-0.32;87.96
58761;BME280;44529;47.464;19.014;2023-02-13T02:07:37;102372.50;;;-0.36;88.31
58761;BME280;44529;47.464;19.014;2023-02-13T02:10:41;102373.22;;;-0.27;86.78
58761;BME280;44529;47.464;19.014;2023-02-13T02:13:44;102372.78;;;-0.31;86.40
58761;BME280;44529;47.464;19.014;2023-02-13T02:16:47;102375.44;;;-0.31;86.35
58761;BME280;44529;47.464;19.014;2023-02-13T02:20:28;102362.91;;;-0.37;87.64
58761;BME280;44529;47.464;19.014;2023-02-13T02:23:44;102372.34;;;-0.49;87.95
58761;BME280;44529;47.464;19.014;2023-02-13T02:27:17;102372.34;;;-0.49;88.15
58761;BME280;44529;47.464;19.014;2023-02-13T02:50:37;102371.38;;;-0.63;87.40
58761;BME280;44529;47.464;19.014;2023-02-13T02:53:50;102369.34;;;-0.61;86.92
58761;BME280;44529;47.464;19.014;2023-02-13T02:56:57;102371.28;;;-0.69;87.40
58761;BME280;44529;47.464;19.014;2023-02-13T03:00:02;102374.66;;;-0.75;87.27
58761;BME280;44529;47.464;19.014;2023-02-13T03:03:45;102367.44;;;-0.82;87.57
58761;BME280;44529;47.464;19.014;2023-02-13T03:07:08;102368.78;;;-0.86;87.78
58761;BME280;44529;47.464;19.014;2023-02-13T03:10:19;102372.28;;;-0.85;88.05
58761;BME280;44529;47.464;19.014;2023-02-13T03:13:44;102372.84;;;-0.90;88.30
58761;BME280;44529;47.464;19.014;2023-02-13T03:16:49;102366.81;;;-0.84;87.69
58761;BME280;44529;47.464;19.014;2023-02-13T03:23:38;102365.50;;;-0.88;88.49
58761;BME280;44529;47.464;19.014;2023-02-13T03:27:08;102366.25;;;-0.94;88.72
58761;BME280;44529;47.464;19.014;2023-02-13T03:30:25;102371.66;;;-1.02;90.02
58761;BME280;44529;47.464;19.014;2023-02-13T03:34:04;102372.66;;;-0.88;89.83
58761;BME280;44529;47.464;19.014;2023-02-13T03:37:09;102363.59;;;-0.94;89.08
58761;BME280;44529;47.464;19.014;2023-02-13T03:41:03;102369.53;;;-0.92;89.07
58761;BME280;44529;47.464;19.014;2023-02-13T03:44:38;102359.37;;;-1.03;90.06
58761;BME280;44529;47.464;19.014;2023-02-13T03:47:43;102356.06;;;-1.05;89.77
58761;BME280;44529;47.464;19.014;2023-02-13T03:50:46;102352.78;;;-1.07;89.67
58761;BME280;44529;47.464;19.014;2023-02-13T03:53:53;102354.59;;;-1.07;89.53
58761;BME280;44529;47.464;19.014;2023-02-13T03:56:57;102359.09;;;-1.08;89.02
58761;BME280;44529;47.464;19.014;2023-02-13T04:00:19;102351.38;;;-1.32;89.67
58761;BME280;44529;47.464;19.014;2023-02-13T04:03:32;102358.44;;;-1.25;90.12
58761;BME280;44529;47.464;19.014;2023-02-13T04:07:10;102357.41;;;-1.24;89.32
58761;BME280;44529;47.464;19.014;2023-02-13T04:10:15;102364.22;;;-1.21;88.91
58761;BME280;44529;47.464;19.014;2023-02-13T04:13:35;102354.94;;;-1.25;89.08
58761;BME280;44529;47.464;19.014;2023-02-13T04:16:42;102369.56;;;-1.29;89.01
58761;BME280;44529;47.464;19.014;2023-02-13T04:19:46;102360.53;;;-1.35;90.02
58761;BME280;44529;47.464;19.014;2023-02-13T04:22:49;102356.75;;;-1.41;90.40
58761;BME280;44529;47.464;19.014;2023-02-13T04:25:53;102357.78;;;-1.42;90.11
58761;BME280;44529;47.464;19.014;2023-02-13T04:28:56;102359.22;;;-1.39;90.32
58761;BME280;44529;47.464;19.014;2023-02-13T04:32:00;102356.38;;;-1.38;90.18
58761;BME280;44529;47.464;19.014;2023-02-13T04:35:03;102353.56;;;-1.36;89.62
58761;BME280;44529;47.464;19.014;2023-02-13T04:38:05;102360.06;;;-1.39;89.86
58761;BME280;44529;47.464;19.014;2023-02-13T04:41:07;102359.31;;;-1.47;89.78
58761;BME280;44529;47.464;19.014;2023-02-13T04:44:10;102356.91;;;-1.57;90.07
58761;BME280;44529;47.464;19.014;2023-02-13T04:47:12;102356.69;;;-1.70;89.95
58761;BME280;44529;47.464;19.014;2023-02-13T04:50:14;102361.16;;;-1.71;89.63
58761;BME280;44529;47.464;19.014;2023-02-13T04:53:17;102356.06;;;-1.80;90.47
58761;BME280;44529;47.464;19.014;2023-02-13T04:56:19;102353.72;;;-1.75;90.42
58761;BME280;44529;47.464;19.014;2023-02-13T04:59:21;102351.25;;;-1.77;90.27
58761;BME280;44529;47.464;19.014;2023-02-13T05:02:23;102351.25;;;-1.77;90.51
58761;BME280;44529;47.464;19.014;2023-02-13T05:05:26;102346.13;;;-1.78;90.60
58761;BME280;44529;47.464;19.014;2023-02-13T05:08:29;102348.13;;;-1.80;90.78
58761;BME280;44529;47.464;19.014;2023-02-13T05:11:31;102351.06;;;-1.75;90.51
58761;BME280;44529;47.464;19.014;2023-02-13T05:14:34;102344.66;;;-1.81;90.65
58761;BME280;44529;47.464;19.014;2023-02-13T05:17:36;102341.25;;;-1.89;91.19
58761;BME280;44529;47.464;19.014;2023-02-13T05:20:38;102341.47;;;-1.76;91.31
58761;BME280;44529;47.464;19.014;2023-02-13T05:23:42;102339.94;;;-1.71;91.45
58761;BME280;44529;47.464;19.014;2023-02-13T05:26:44;102331.47;;;-1.66;91.35
58761;BME280;44529;47.464;19.014;2023-02-13T05:29:47;102326.88;;;-1.72;91.10
58761;BME280;44529;47.464;19.014;2023-02-13T05:32:49;102330.16;;;-1.70;89.93
58761;BME280;44529;47.464;19.014;2023-02-13T05:35:56;102327.81;;;-1.88;90.85
58761;BME280;44529;47.464;19.014;2023-02-13T05:38:59;102329.62;;;-1.88;90.37
58761;BME280;44529;47.464;19.014;2023-02-13T05:42:03;102332.78;;;-1.85;90.66
58761;BME280;44529;47.464;19.014;2023-02-13T05:45:06;102341.84;;;-1.79;90.30
58761;BME280;44529;47.464;19.014;2023-02-13T05:48:09;102344.25;;;-1.93;90.00
58761;BME280;44529;47.464;19.014;2023-02-13T05:51:11;102337.53;;;-2.03;91.16
58761;BME280;44529;47.464;19.014;2023-02-13T05:54:14;102339.44;;;-2.12;91.88
58761;BME280;44529;47.464;19.014;2023-02-13T05:57:16;102348.31;;;-2.05;91.26
58761;BME280;44529;47.464;19.014;2023-02-13T06:00:19;102348.13;;;-2.03;91.38
58761;BME280;44529;47.464;19.014;2023-02-13T06:03:23;102346.78;;;-1.99;91.20
58761;BME280;44529;47.464;19.014;2023-02-13T06:06:26;102344.66;;;-2.04;91.49
58761;BME280;44529;47.464;19.014;2023-02-13T06:09:29;102349.59;;;-2.01;91.20
58761;BME280;44529;47.464;19.014;2023-02-13T06:12:31;102353.06;;;-2.00;91.55
58761;BME280;44529;47.464;19.014;2023-02-13T06:15:34;102362.34;;;-1.96;91.38
58761;BME280;44529;47.464;19.014;2023-02-13T06:18:37;102375.87;;;-1.91;91.16
58761;BME280;44529;47.464;19.014;2023-02-13T06:21:40;102371.75;;;-1.94;91.02
58761;BME280;44529;47.464;19.014;2023-02-13T06:24:42;102377.16;;;-2.10;92.38
58761;BME280;44529;47.464;19.014;2023-02-13T06:27:45;102373.47;;;-2.01;91.45
58761;BME280;44529;47.464;19.014;2023-02-13T06:30:47;102370.94;;;-1.94;90.93
58761;BME280;44529;47.464;19.014;2023-02-13T06:33:50;102376.47;;;-2.04;91.65
58761;BME280;44529;47.464;19.014;2023-02-13T06:36:53;102379.13;;;-2.04;91.91
58761;BME280;44529;47.464;19.014;2023-02-13T06:39:55;102386.72;;;-2.01;91.44
58761;BME280;44529;47.464;19.014;2023-02-13T06:42:57;102383.91;;;-1.99;91.13
58761;BME280;44529;47.464;19.014;2023-02-13T06:46:04;102382.06;;;-1.99;91.16
58761;BME280;44529;47.464;19.014;2023-02-13T06:49:08;102383.78;;;-2.06;91.81
58761;BME280;44529;47.464;19.014;2023-02-13T06:52:10;102380.13;;;-2.05;91.81
58761;BME280;44529;47.464;19.014;2023-02-13T06:55:13;102378.59;;;-1.99;91.08
58761;BME280;44529;47.464;19.014;2023-02-13T06:58:17;102387.66;;;-2.16;91.55
58761;BME280;44529;47.464;19.014;2023-02-13T07:01:19;102394.53;;;-2.07;91.08
58761;BME280;44529;47.464;19.014;2023-02-13T07:04:22;102382.22;;;-2.23;91.60
58761;BME280;44529;47.464;19.014;2023-02-13T07:07:24;102383.78;;;-2.06;90.90
58761;BME280;44529;47.464;19.014;2023-02-13T07:10:27;102386.37;;;-1.98;90.52
58761;BME280;44529;47.464;19.014;2023-02-13T07:13:29;102385.00;;;-1.94;90.23
58761;BME280;44529;47.464;19.014;2023-02-13T07:16:32;102387.44;;;-1.84;90.18
58761;BME280;44529;47.464;19.014;2023-02-13T07:19:35;102391.03;;;-1.77;89.75
58761;BME280;44529;47.464;19.014;2023-02-13T07:22:44;102391.78;;;-1.68;90.03
58761;BME280;44529;47.464;19.014;2023-02-13T07:25:46;102394.41;;;-1.60;89.80
58761;BME280;44529;47.464;19.014;2023-02-13T07:28:49;102398.16;;;-1.54;89.52
58761;BME280;44529;47.464;19.014;2023-02-13T07:32:06;102395.16;;;-1.51;90.00
58761;BME280;44529;47.464;19.014;2023-02-13T07:35:10;102391.53;;;-1.36;89.60
58761;BME280;44529;47.464;19.014;2023-02-13T07:38:12;102389.34;;;-1.32;89.66
58761;BME280;44529;47.464;19.014;2023-02-13T07:41:15;102391.75;;;-1.22;89.55
58761;BME280;44529;47.464;19.014;2023-02-13T07:44:17;102393.03;;;-1.18;90.00
58761;BME280;44529;47.464;19.014;2023-02-13T07:47:19;102392.13;;;-1.11;89.62
58761;BME280;44529;47.464;19.014;2023-02-13T07:50:22;102404.13;;;-1.00;89.39
58761;BME280;44529;47.464;19.014;2023-02-13T07:53:25;102406.34;;;-0.89;89.37
58761;BME280;44529;47.464;19.014;2023-02-13T07:56:27;102403.97;;;-0.84;89.38
58761;BME280;44529;47.464;19.014;2023-02-13T07:59:30;102403.50;;;-0.72;89.29
58761;BME280;44529;47.464;19.014;2023-02-13T08:02:32;102406.81;;;-0.70;89.94
58761;BME280;44529;47.464;19.014;2023-02-13T08:05:40;102405.31;;;-0.58;89.69
58761;BME280;44529;47.464;19.014;2023-02-13T08:08:42;102411.81;;;-0.46;90.03
58761;BME280;44529;47.464;19.014;2023-02-13T08:11:45;102412.72;;;-0.39;90.26
58761;BME280;44529;47.464;19.014;2023-02-13T08:15:11;102407.03;;;-0.21;89.60
58761;BME280;44529;47.464;19.014;2023-02-13T08:18:14;102406.75;;;-0.11;90.32
58761;BME280;44529;47.464;19.014;2023-02-13T08:21:19;102396.06;;;0.04;89.78
58761;BME280;44529;47.464;19.014;2023-02-13T08:24:24;102403.56;;;0.15;89.27
58761;BME280;44529;47.464;19.014;2023-02-13T08:27:27;102394.62;;;0.22;89.22
58761;BME280;44529;47.464;19.014;2023-02-13T08:30:32;102401.09;;;0.35;89.12
58761;BME280;44529;47.464;19.014;2023-02-13T08:33:34;102398.91;;;0.45;88.80
58761;BME280;44529;47.464;19.014;2023-02-13T08:36:37;102399.06;;;0.58;88.93
58761;BME280;44529;47.464;19.014;2023-02-13T08:39:39;102391.53;;;0.68;87.84
58761;BME280;44529;47.464;19.014;2023-02-13T08:42:42;102390.25;;;0.86;86.39
58761;BME280;44529;47.464;19.014;2023-02-13T08:45:44;102386.84;;;0.98;85.91
58761;BME280;44529;47.464;19.014;2023-02-13T08:48:47;102381.03;;;1.16;84.50
58761;BME280;44529;47.464;19.014;2023-02-13T08:51:49;102386.44;;;1.29;83.87
58761;BME280;44529;47.464;19.014;2023-02-13T08:54:52;102383.69;;;1.57;82.84
58761;BME280;44529;47.464;19.014;2023-02-13T08:57:54;102385.66;;;1.90;80.94
58761;BME280;44529;47.464;19.014;2023-02-13T09:00:57;102387.78;;;2.21;78.81
58761;BME280;44529;47.464;19.014;2023-02-13T09:03:59;102390.28;;;2.56;77.41
58761;BME280;44529;47.464;19.014;2023-02-13T09:07:02;102387.16;;;2.98;76.39
58761;BME280;44529;47.464;19.014;2023-02-13T09:10:05;102385.00;;;3.40;75.11
58761;BME280;44529;47.464;19.014;2023-02-13T09:13:08;102392.44;;;3.83;72.39
58761;BME280;44529;47.464;19.014;2023-02-13T09:16:10;102383.19;;;4.17;70.97
58761;BME280;44529;47.464;19.014;2023-02-13T09:19:13;102391.88;;;4.69;68.85
58761;BME280;44529;47.464;19.014;2023-02-13T09:22:15;102387.25;;;5.01;67.17
58761;BME280;44529;47.464;19.014;2023-02-13T09:25:18;102382.50;;;5.03;66.93
58761;BME280;44529;47.464;19.014;2023-02-13T09:28:22;102388.16;;;5.32;66.11
58761;BME280;44529;47.464;19.014;2023-02-13T09:31:25;102394.34;;;5.51;64.63
58761;BME280;44529;47.464;19.014;2023-02-13T09:34:30;102389.66;;;5.46;62.67
58761;BME280;44529;47.464;19.014;2023-02-13T09:37:33;102388.31;;;5.55;63.79
58761;BME280;44529;47.464;19.014;2023-02-13T09:40:48;102388.47;;;5.60;63.24
58761;BME280;44529;47.464;19.014;2023-02-13T09:43:56;102391.22;;;5.54;62.51
58761;BME280;44529;47.464;19.014;2023-02-13T09:47:11;102379.88;;;5.52;63.58
58761;BME280;44529;47.464;19.014;2023-02-13T09:50:22;102384.00;;;5.54;62.91
58761;BME280;44529;47.464;19.014;2023-02-13T09:53:27;102381.25;;;5.61;62.26
58761;BME280;44529;47.464;19.014;2023-02-13T10:03:27;102378.50;;;5.79;62.63
58761;BME280;44529;47.464;19.014;2023-02-13T10:06:38;102371.59;;;5.53;61.78
58761;BME280;44529;47.464;19.014;2023-02-13T10:13:15;102369.37;;;5.68;62.78
58761;BME280;44529;47.464;19.014;2023-02-13T10:23:23;102351.31;;;5.94;62.18
58761;BME280;44529;47.464;19.014;2023-02-13T10:26:34;102348.00;;;5.92;60.94
58761;BME280;44529;47.464;19.014;2023-02-13T10:29:49;102347.00;;;6.05;61.83
58761;BME280;44529;47.464;19.014;2023-02-13T10:33:33;102351.09;;;6.07;61.25
58761;BME280;44529;47.464;19.014;2023-02-13T10:36:42;102351.00;;;6.14;60.01
58761;BME280;44529;47.464;19.014;2023-02-13T10:39:50;102351.84;;;6.26;60.57
58761;BME280;44529;47.464;19.014;2023-02-13T10:43:06;102347.12;;;6.51;61.09
58761;BME280;44529;47.464;19.014;2023-02-13T10:46:16;102345.94;;;6.59;59.85
58761;BME280;44529;47.464;19.014;2023-02-13T10:49:32;102339.03;;;6.63;60.13
58761;BME280;44529;47.464;19.014;2023-02-13T11:02:21;102306.31;;;6.90;59.03
58761;BME280;44529;47.464;19.014;2023-02-13T11:05:50;102305.13;;;6.86;58.46
58761;BME280;44529;47.464;19.014;2023-02-13T11:08:55;102303.12;;;7.04;58.70
58761;BME280;44529;47.464;19.014;2023-02-13T11:11:57;102296.53;;;7.24;58.92
58761;BME280;44529;47.464;19.014;2023-02-13T11:15:04;102289.88;;;7.15;58.68
58761;BME280;44529;47.464;19.014;2023-02-13T11:18:16;102284.81;;;7.30;59.21
58761;BME280;44529;47.464;19.014;2023-02-13T11:21:32;102285.59;;;7.42;59.39
58761;BME280;44529;47.464;19.014;2023-02-13T11:24:52;102279.47;;;7.47;58.61
58761;BME280;44529;47.464;19.014;2023-02-13T11:28:14;102282.69;;;7.32;59.08
58761;BME280;44529;47.464;19.014;2023-02-13T11:31:33;102271.50;;;7.52;59.07
58761;BME280;44529;47.464;19.014;2023-02-13T11:34:36;102269.66;;;7.69;58.62
58761;BME280;44529;47.464;19.014;2023-02-13T11:37:39;102262.34;;;7.81;57.57
58761;BME280;44529;47.464;19.014;2023-02-13T11:40:44;102254.25;;;7.98;56.37
58761;BME280;44529;47.464;19.014;2023-02-13T11:43:56;102259.09;;;7.79;54.90
58761;BME280;44529;47.464;19.014;2023-02-13T11:47:03;102249.03;;;7.92;55.79
58761;BME280;44529;47.464;19.014;2023-02-13T11:50:42;102243.91;;;8.07;55.67
58761;BME280;44529;47.464;19.014;2023-02-13T11:53:47;102242.34;;;8.11;55.17
58761;BME280;44529;47.464;19.014;2023-02-13T11:56:59;102231.56;;;8.11;55.19
58761;BME280;44529;47.464;19.014;2023-02-13T12:03:31;102238.59;;;8.46;54.82
58761;BME280;44529;47.464;19.014;2023-02-13T12:06:34;102235.25;;;8.38;54.60
58761;BME280;44529;47.464;19.014;2023-02-13T12:09:43;102238.84;;;8.44;55.41
58761;BME280;44529;47.464;19.014;2023-02-13T12:12:53;102236.91;;;8.61;54.97
58761;BME280;44529;47.464;19.014;2023-02-13T12:16:01;102232.47;;;8.72;54.66
58761;BME280;44529;47.464;19.014;2023-02-13T12:19:08;102236.25;;;8.71;54.28
58761;BME280;44529;47.464;19.014;2023-02-13T12:25:44;102231.91;;;8.92;54.21
58761;BME280;44529;47.464;19.014;2023-02-13T12:32:19;102214.66;;;8.93;53.66
58761;BME280;44529;47.464;19.014;2023-02-13T12:45:36;102192.72;;;8.84;53.34
58761;BME280;44529;47.464;19.014;2023-02-13T12:48:59;102184.56;;;8.79;54.02
58761;BME280;44529;47.464;19.014;2023-02-13T13:05:28;102158.34;;;9.56;53.63
58761;BME280;44529;47.464;19.014;2023-02-13T13:18:32;102154.69;;;9.72;53.25
58761;BME280;44529;47.464;19.014;2023-02-13T13:25:37;102158.22;;;10.15;52.37
58761;BME280;44529;47.464;19.014;2023-02-13T13:28:47;102153.41;;;10.22;52.69
58761;BME280;44529;47.464;19.014;2023-02-13T13:31:56;102144.47;;;10.21;53.25
58761;BME280;44529;47.464;19.014;2023-02-13T13:35:01;102159.16;;;10.25;52.97
58761;BME280;44529;47.464;19.014;2023-02-13T13:38:11;102151.19;;;10.14;52.31
58761;BME280;44529;47.464;19.014;2023-02-13T13:51:14;102153.03;;;10.45;51.42
58761;BME280;44529;47.464;19.014;2023-02-13T13:54:22;102153.25;;;9.96;52.25
58761;BME280;44529;47.464;19.014;2023-02-13T14:01:27;102137.53;;;9.88;52.88
58761;BME280;44529;47.464;19.014;2023-02-13T14:07:39;102134.47;;;9.74;54.15
58761;BME280;44529;47.464;19.014;2023-02-13T14:13:51;102142.59;;;9.80;54.41
58761;BME280;44529;47.464;19.014;2023-02-13T14:16:55;102141.34;;;9.55;54.80
58761;BME280;44529;47.464;19.014;2023-02-13T14:19:59;102141.13;;;9.62;55.69
58761;BME280;44529;47.464;19.014;2023-02-13T14:26:31;102154.06;;;9.60;55.79
58761;BME280;44529;47.464;19.014;2023-02-13T14:29:34;102144.41;;;9.69;55.14
58761;BME280;44529;47.464;19.014;2023-02-13T14:32:38;102156.19;;;9.58;55.65
58761;BME280;44529;47.464;19.014;2023-02-13T14:35:42;102158.84;;;9.53;55.80
58761;BME280;44529;47.464;19.014;2023-02-13T14:38:54;102159.13;;;9.51;55.92
58761;BME280;44529;47.464;19.014;2023-02-13T14:41:59;102163.00;;;9.33;57.24
58761;BME280;44529;47.464;19.014;2023-02-13T14:45:04;102160.75;;;9.25;57.42
58761;BME280;44529;47.464;19.014;2023-02-13T14:48:13;102163.19;;;9.27;57.82
58761;BME280;44529;47.464;19.014;2023-02-13T14:51:22;102154.69;;;9.13;57.29
58761;BME280;44529;47.464;19.014;2023-02-13T14:54:47;102166.50;;;9.07;57.90
58761;BME280;44529;47.464;19.014;2023-02-13T14:58:06;102164.72;;;8.90;58.42
58761;BME280;44529;47.464;19.014;2023-02-13T15:01:29;102165.00;;;8.89;58.63
58761;BME280;44529;47.464;19.014;2023-02-13T15:04:44;102162.41;;;8.55;60.15
58761;BME280;44529;47.464;19.014;2023-02-13T15:08:13;102161.81;;;8.31;61.52
58761;BME280;44529;47.464;19.014;2023-02-13T15:11:36;102162.91;;;8.13;62.13
58761;BME280;44529;47.464;19.014;2023-02-13T15:14:39;102156.06;;;8.06;62.51
58761;BME280;44529;47.464;19.014;2023-02-13T15:17:41;102155.19;;;7.83;63.26
58761;BME280;44529;47.464;19.014;2023-02-13T15:20:45;102155.50;;;7.70;63.99
58761;BME280;44529;47.464;19.014;2023-02-13T15:23:50;102158.13;;;7.65;64.10
58761;BME280;44529;47.464;19.014;2023-02-13T15:27:02;102163.34;;;7.55;64.86
58761;BME280;44529;47.464;19.014;2023-02-13T15:33:17;102164.12;;;7.39;65.63
58761;BME280;44529;47.464;19.014;2023-02-13T15:36:22;102162.56;;;7.26;66.44
58761;BME280;44529;47.464;19.014;2023-02-13T15:39:30;102170.72;;;7.31;66.01
58761;BME280;44529;47.464;19.014;2023-02-13T15:42:33;102162.72;;;7.19;66.51
58761;BME280;44529;47.464;19.014;2023-02-13T15:45:36;102157.44;;;7.24;66.62
58761;BME280;44529;47.464;19.014;2023-02-13T15:48:38;102150.66;;;7.22;66.21
58761;BME280;44529;47.464;19.014;2023-02-13T15:51:40;102153.00;;;7.18;66.21
58761;BME280;44529;47.464;19.014;2023-02-13T15:54:51;102146.47;;;7.14;66.29
58761;BME280;44529;47.464;19.014;2023-02-13T15:57:54;102153.97;;;7.12;66.35
58761;BME280;44529;47.464;19.014;2023-02-13T16:01:06;102153.16;;;7.12;66.50
58761;BME280;44529;47.464;19.014;2023-02-13T16:04:13;102158.69;;;7.05;66.87
58761;BME280;44529;47.464;19.014;2023-02-13T16:07:16;102156.72;;;7.00;67.11
58761;BME280;44529;47.464;19.014;2023-02-13T16:10:27;102160.72;;;6.98;67.52
58761;BME280;44529;47.464;19.014;2023-02-13T16:13:30;102155.91;;;7.00;67.07
58761;BME280;44529;47.464;19.014;2023-02-13T16:19:51;102169.94;;;7.02;67.35
58761;BME280;44529;47.464;19.014;2023-02-13T16:22:56;102171.44;;;7.10;67.10
58761;BME280;44529;47.464;19.014;2023-02-13T16:26:03;102164.88;;;7.05;66.70
58761;BME280;44529;47.464;19.014;2023-02-13T16:29:09;102170.25;;;7.05;67.12
58761;BME280;44529;47.464;19.014;2023-02-13T16:32:18;102165.03;;;6.99;66.74
58761;BME280;44529;47.464;19.014;2023-02-13T16:35:27;102156.34;;;7.09;66.58
58761;BME280;44529;47.464;19.014;2023-02-13T16:38:41;102163.66;;;6.96;66.95
58761;BME280;44529;47.464;19.014;2023-02-13T16:41:44;102148.47;;;6.90;67.24
58761;BME280;44529;47.464;19.014;2023-02-13T16:44:46;102152.34;;;6.83;67.46
58761;BME280;44529;47.464;19.014;2023-02-13T16:47:58;102158.09;;;6.74;67.80
58761;BME280;44529;47.464;19.014;2023-02-13T16:51:03;102149.84;;;6.64;68.10
58761;BME280;44529;47.464;19.014;2023-02-13T17:00:20;102148.69;;;6.60;68.78
58761;BME280;44529;47.464;19.014;2023-02-13T17:03:25;102145.56;;;6.51;68.93
58761;BME280;44529;47.464;19.014;2023-02-13T17:06:27;102154.56;;;6.45;69.53
58761;BME280;44529;47.464;19.014;2023-02-13T17:09:30;102150.94;;;6.40;69.70
58761;BME280;44529;47.464;19.014;2023-02-13T17:12:37;102133.41;;;6.37;70.14
58761;BME280;44529;47.464;19.014;2023-02-13T17:15:44;102121.97;;;6.42;69.68
58761;BME280;44529;47.464;19.014;2023-02-13T17:18:47;102126.50;;;6.53;69.47
58761;BME280;44529;47.464;19.014;2023-02-13T17:21:53;102127.34;;;6.42;69.82
58761;BME280;44529;47.464;19.014;2023-02-13T17:24:57;102122.06;;;6.47;69.76
58761;BME280;44529;47.464;19.014;2023-02-13T17:28:21;102120.16;;;6.59;69.30
58761;BME280;44529;47.464;19.014;2023-02-13T17:31:25;102110.94;;;6.55;69.32
58761;BME280;44529;47.464;19.014;2023-02-13T17:34:27;102123.94;;;6.46;69.65
58761;BME280;44529;47.464;19.014;2023-02-13T17:37:30;102116.97;;;6.22;70.77
58761;BME280;44529;47.464;19.014;2023-02-13T17:40:34;102120.59;;;6.28;70.75
58761;BME280;44529;47.464;19.014;2023-02-13T17:43:36;102113.47;;;6.21;71.00
58761;BME280;44529;47.464;19.014;2023-02-13T17:46:39;102115.00;;;6.17;71.23
58761;BME280;44529;47.464;19.014;2023-02-13T17:49:41;102107.53;;;6.19;71.09
58761;BME280;44529;47.464;19.014;2023-02-13T17:52:45;102114.87;;;6.24;71.06
58761;BME280;44529;47.464;19.014;2023-02-13T17:55:49;102108.59;;;6.18;71.08
58761;BME280;44529;47.464;19.014;2023-02-13T17:58:51;102093.31;;;6.07;71.47
58761;BME280;44529;47.464;19.014;2023-02-13T18:01:54;102091.44;;;5.96;72.21
58761;BME280;44529;47.464;19.014;2023-02-13T18:04:56;102086.28;;;5.83;72.55
58761;BME280;44529;47.464;19.014;2023-02-13T18:07:59;102090.97;;;5.76;72.80
58761;BME280;44529;47.464;19.014;2023-02-13T18:11:09;102096.06;;;5.65;73.32
58761;BME280;44529;47.464;19.014;2023-02-13T18:14:11;102095.38;;;5.70;73.44
58761;BME280;44529;47.464;19.014;2023-02-13T18:17:14;102087.22;;;5.65;73.44
58761;BME280;44529;47.464;19.014;2023-02-13T18:20:19;102074.50;;;5.49;74.52
58761;BME280;44529;47.464;19.014;2023-02-13T18:23:24;102082.41;;;5.43;75.18
58761;BME280;44529;47.464;19.014;2023-02-13T18:26:27;102074.34;;;5.32;76.28